Amis Glory — 3FSN5 — position and weather

sailwx.info

Track history (hours):
 
Tides and Currents Weather Stations Pressure Air Temp Water Temp Dewpoint Dewpoint Depression Visibility Wind Speed Wind Dir Waves Ship Positions

Amis Glory

Last reported at 2017-Sep-29 21:09 UTC. Time now 2017-Oct-18 12:53 UTC.
Position N 27°36' W 015°15'.
Warning: this ship's position is 18 days out of date.

Length 189 m; draft 10.3 m.

Type: Cargo ship. MMSI: 374710000.

Date/timePositionNaut miles runAvg speedWind from/ knotsBaromVisibWave heightAir tempDewpointWater temp
2017-Sep-29 21:09N 27°36' W 015°15'214.3
2017-Sep-29 21:00N 27°38' W 015°14'714.1
2017-Sep-29 20:30N 27°45' W 015°11'714.3
2017-Sep-29 20:00N 27°51' W 015°08'714.4
2017-Sep-29 19:30N 27°58' W 015°05'714.3
2017-Sep-29 19:00N 28°05' W 015°02'714.0
2017-Sep-29 18:30N 28°11' W 014°59'714.2
2017-Sep-29 18:00N 28°18' W 014°57'714.4
2017-Sep-29 17:30N 28°25' W 014°54'714.4
2017-Sep-29 17:00N 28°31' W 014°51'714.2
2017-Sep-29 16:30N 28°37' W 014°46'63913.9
2017-Sep-27 18:21N 35°58' W 005°37'513.6
2017-Sep-27 18:00N 35°59' W 005°32'713.0
2017-Sep-27 17:30N 36°02' W 005°25'510.0
2017-Sep-27 17:00N 36°06' W 005°22'0 0.2
2017-Sep-27 16:21N 36°06' W 005°22'0 0.1
2017-Sep-27 13:12N 36°06' W 005°22'0 0.0
2017-Sep-27 12:45N 36°06' W 005°22'0 0.1
2017-Sep-27 12:27N 36°06' W 005°22'0 0.1
2017-Sep-27 11:51N 36°06' W 005°22'0 0.0
2017-Sep-27 10:36N 36°06' W 005°22'0 0.0
2017-Sep-27 10:12N 36°06' W 005°22'0 0.1
2017-Sep-27 08:00N 36°06' W 005°22'0 0.0
2017-Sep-27 07:30N 36°06' W 005°22'0 0.0
2017-Sep-27 06:15N 36°06' W 005°22'0 0.0
2017-Sep-27 03:12N 36°06' W 005°22'1 3.1
2017-Sep-27 03:00N 36°06' W 005°22'3 6.9
2017-Sep-27 02:30N 36°04' W 005°18'611.1
2017-Sep-27 02:00N 36°05' W 005°11'7 0.8
2017-Sep-26 17:40N 36°10' W 005°05'0 0.3
2017-Sep-26 17:20N 36°10' W 005°05'0 0.2
2017-Sep-26 16:52N 36°10' W 005°05'0 0.3
2017-Sep-26 16:30N 36°10' W 005°05'0 0.1
2017-Sep-26 15:55N 36°10' W 005°05'1 0.8
2017-Sep-26 15:16N 36°10' W 005°05'0 0.7
2017-Sep-26 15:00N 36°10' W 005°05'0 0.7
2017-Sep-26 14:28N 36°11' W 005°05'0 1.1
2017-Sep-26 14:00N 36°11' W 005°04'4 2.2
2017-Sep-26 11:59N 36°10' W 005°10'4 5.5
2017-Sep-26 11:14N 36°06' W 005°09'1 0.1
2017-Sep-26 06:41N 36°06' W 005°09'0 0.1
2017-Sep-26 06:28N 36°06' W 005°09'17312.0
2017-Sep-25 16:02N 36°48' W 001°40'113.9
2017-Sep-25 15:59N 36°48' W 001°39'713.7
2017-Sep-25 15:29N 36°53' W 001°33'713.6
2017-Sep-25 15:00N 36°57' W 001°27'813.5
2017-Sep-25 14:26N 37°02' W 001°19'613.4
2017-Sep-25 13:59N 37°06' W 001°14'1313.3
2017-Sep-25 13:02N 37°14' W 001°02'113.3
2017-Sep-25 12:59N 37°15' W 001°01'713.5
2017-Sep-25 12:30N 37°19' W 000°55'713.9
2017-Sep-25 12:00N 37°24' W 000°48'713.6
2017-Sep-25 11:30N 37°28' W 000°42'713.4
2017-Sep-25 11:00N 37°33' W 000°36'713.0
2017-Sep-25 10:29N 37°38' W 000°30'713.2
2017-Sep-25 10:00N 37°43' W 000°25'813.4
2017-Sep-25 09:25N 37°50' W 000°20'613.3
2017-Sep-25 08:56N 37°55' W 000°16'613.2
2017-Sep-25 08:30N 37°60' W 000°12'713.2
2017-Sep-25 08:00N 38°05' W 000°07'613.3
2017-Sep-25 07:30N 38°11' W 000°03'713.3
2017-Sep-25 07:00N 38°17' E 000°02'713.3
2017-Sep-25 06:30N 38°22' E 000°06'713.4
2017-Sep-25 06:00N 38°28' E 000°11'713.2
2017-Sep-25 05:30N 38°34' E 000°15'1312.4
2017-Sep-25 04:29N 38°44' E 000°23'612.5
2017-Sep-25 04:00N 38°49' E 000°28'713.2
2017-Sep-25 03:30N 38°55' E 000°32'1413.3
2017-Sep-25 02:28N 39°07' E 000°40'613.5
2017-Sep-25 02:00N 39°13' E 000°44'1713.5
2017-Sep-25 00:44N 39°28' E 000°55'613.3
2017-Sep-25 00:16N 39°33' E 000°59'1013.4
2017-Sep-24 23:31N 39°42' E 001°04'013.5
2017-Sep-24 23:30N 39°42' E 001°04'713.6
2017-Sep-24 23:00N 39°48' E 001°08'713.6
2017-Sep-24 22:30N 39°54' E 001°13'713.8
2017-Sep-24 22:00N 40°00' E 001°17'713.8
2017-Sep-24 21:30N 40°07' E 001°21'714.0
2017-Sep-24 21:00N 40°13' E 001°25'713.8
2017-Sep-24 20:30N 40°19' E 001°30'713.5
2017-Sep-24 20:00N 40°25' E 001°34'713.6
2017-Sep-24 19:30N 40°31' E 001°38'713.7
2017-Sep-24 19:00N 40°37' E 001°42'713.7
2017-Sep-24 18:30N 40°43' E 001°46'713.5
2017-Sep-24 18:00N 40°49' E 001°51'713.5
2017-Sep-24 17:30N 40°55' E 001°55'713.6
2017-Sep-24 17:00N 41°01' E 001°59'713.8
2017-Sep-24 16:31N 41°07' E 002°04'713.7
2017-Sep-24 16:00N 41°13' E 002°08'710.6
2017-Sep-24 15:19N 41°20' E 002°10'1 4.4
2017-Sep-24 15:00N 41°21' E 002°10'0 0.2
2017-Sep-24 14:27N 41°22' E 002°10'0 0.0
2017-Sep-24 13:57N 41°22' E 002°10'0 0.0
2017-Sep-24 13:27N 41°22' E 002°10'0 0.0
2017-Sep-24 10:21N 41°22' E 002°10'0 0.0
2017-Sep-24 09:57N 41°22' E 002°10'0 0.0
2017-Sep-23 22:33N 41°22' E 002°10'0 0.0
2017-Sep-23 22:21N 41°22' E 002°10'0 0.0
2017-Sep-23 19:39N 41°22' E 002°10'  
2017-Sep-20 15:45N 41°18' E 002°11'  
Track history (hours):
 
Tides and Currents Weather Stations Pressure Air Temp Water Temp Dewpoint Dewpoint Depression Visibility Wind Speed Wind Dir Waves Ship Positions

Amis Glory

Last reported at 2017-Sep-29 21:09 UTC. Time now 2017-Oct-18 12:53 UTC.
Position N 27°36' W 015°15'.
Warning: this ship's position is 18 days out of date.

Length 189 m; draft 10.3 m.

Type: Cargo ship. MMSI: 374710000.

Date/timePositionNaut miles runAvg speedWind from/ knotsBaromVisibWave heightAir tempDewpointWater temp
2017-Sep-29 21:09N 27°36' W 015°15'214.3
2017-Sep-29 21:00N 27°38' W 015°14'714.1
2017-Sep-29 20:30N 27°45' W 015°11'714.3
2017-Sep-29 20:00N 27°51' W 015°08'714.4
2017-Sep-29 19:30N 27°58' W 015°05'714.3
2017-Sep-29 19:00N 28°05' W 015°02'714.0
2017-Sep-29 18:30N 28°11' W 014°59'714.2
2017-Sep-29 18:00N 28°18' W 014°57'714.4
2017-Sep-29 17:30N 28°25' W 014°54'714.4
2017-Sep-29 17:00N 28°31' W 014°51'714.2
2017-Sep-29 16:30N 28°37' W 014°46'63913.9
2017-Sep-27 18:21N 35°58' W 005°37'513.6
2017-Sep-27 18:00N 35°59' W 005°32'713.0
2017-Sep-27 17:30N 36°02' W 005°25'510.0
2017-Sep-27 17:00N 36°06' W 005°22'0 0.2
2017-Sep-27 16:21N 36°06' W 005°22'0 0.1
2017-Sep-27 13:12N 36°06' W 005°22'0 0.0
2017-Sep-27 12:45N 36°06' W 005°22'0 0.1
2017-Sep-27 12:27N 36°06' W 005°22'0 0.1
2017-Sep-27 11:51N 36°06' W 005°22'0 0.0
2017-Sep-27 10:36N 36°06' W 005°22'0 0.0
2017-Sep-27 10:12N 36°06' W 005°22'0 0.1
2017-Sep-27 08:00N 36°06' W 005°22'0 0.0
2017-Sep-27 07:30N 36°06' W 005°22'0 0.0
2017-Sep-27 06:15N 36°06' W 005°22'0 0.0
2017-Sep-27 03:12N 36°06' W 005°22'1 3.1
2017-Sep-27 03:00N 36°06' W 005°22'3 6.9
2017-Sep-27 02:30N 36°04' W 005°18'611.1
2017-Sep-27 02:00N 36°05' W 005°11'7 0.8
2017-Sep-26 17:40N 36°10' W 005°05'0 0.3
2017-Sep-26 17:20N 36°10' W 005°05'0 0.2
2017-Sep-26 16:52N 36°10' W 005°05'0 0.3
2017-Sep-26 16:30N 36°10' W 005°05'0 0.1
2017-Sep-26 15:55N 36°10' W 005°05'1 0.8
2017-Sep-26 15:16N 36°10' W 005°05'0 0.7
2017-Sep-26 15:00N 36°10' W 005°05'0 0.7
2017-Sep-26 14:28N 36°11' W 005°05'0 1.1
2017-Sep-26 14:00N 36°11' W 005°04'4 2.2
2017-Sep-26 11:59N 36°10' W 005°10'4 5.5
2017-Sep-26 11:14N 36°06' W 005°09'1 0.1
2017-Sep-26 06:41N 36°06' W 005°09'0 0.1
2017-Sep-26 06:28N 36°06' W 005°09'17312.0
2017-Sep-25 16:02N 36°48' W 001°40'113.9
2017-Sep-25 15:59N 36°48' W 001°39'713.7
2017-Sep-25 15:29N 36°53' W 001°33'713.6
2017-Sep-25 15:00N 36°57' W 001°27'813.5
2017-Sep-25 14:26N 37°02' W 001°19'613.4
2017-Sep-25 13:59N 37°06' W 001°14'1313.3
2017-Sep-25 13:02N 37°14' W 001°02'113.3
2017-Sep-25 12:59N 37°15' W 001°01'713.5
2017-Sep-25 12:30N 37°19' W 000°55'713.9
2017-Sep-25 12:00N 37°24' W 000°48'713.6
2017-Sep-25 11:30N 37°28' W 000°42'713.4
2017-Sep-25 11:00N 37°33' W 000°36'713.0
2017-Sep-25 10:29N 37°38' W 000°30'713.2
2017-Sep-25 10:00N 37°43' W 000°25'813.4
2017-Sep-25 09:25N 37°50' W 000°20'613.3
2017-Sep-25 08:56N 37°55' W 000°16'613.2
2017-Sep-25 08:30N 37°60' W 000°12'713.2
2017-Sep-25 08:00N 38°05' W 000°07'613.3
2017-Sep-25 07:30N 38°11' W 000°03'713.3
2017-Sep-25 07:00N 38°17' E 000°02'713.3
2017-Sep-25 06:30N 38°22' E 000°06'713.4
2017-Sep-25 06:00N 38°28' E 000°11'713.2
2017-Sep-25 05:30N 38°34' E 000°15'1312.4
2017-Sep-25 04:29N 38°44' E 000°23'612.5
2017-Sep-25 04:00N 38°49' E 000°28'713.2
2017-Sep-25 03:30N 38°55' E 000°32'1413.3
2017-Sep-25 02:28N 39°07' E 000°40'613.5
2017-Sep-25 02:00N 39°13' E 000°44'1713.5
2017-Sep-25 00:44N 39°28' E 000°55'613.3
2017-Sep-25 00:16N 39°33' E 000°59'1013.4
2017-Sep-24 23:31N 39°42' E 001°04'013.5
2017-Sep-24 23:30N 39°42' E 001°04'713.6
2017-Sep-24 23:00N 39°48' E 001°08'713.6
2017-Sep-24 22:30N 39°54' E 001°13'713.8
2017-Sep-24 22:00N 40°00' E 001°17'713.8
2017-Sep-24 21:30N 40°07' E 001°21'714.0
2017-Sep-24 21:00N 40°13' E 001°25'713.8
2017-Sep-24 20:30N 40°19' E 001°30'713.5
2017-Sep-24 20:00N 40°25' E 001°34'713.6
2017-Sep-24 19:30N 40°31' E 001°38'713.7
2017-Sep-24 19:00N 40°37' E 001°42'713.7
2017-Sep-24 18:30N 40°43' E 001°46'713.5
2017-Sep-24 18:00N 40°49' E 001°51'713.5
2017-Sep-24 17:30N 40°55' E 001°55'713.6
2017-Sep-24 17:00N 41°01' E 001°59'713.8
2017-Sep-24 16:31N 41°07' E 002°04'713.7
2017-Sep-24 16:00N 41°13' E 002°08'710.6
2017-Sep-24 15:19N 41°20' E 002°10'1 4.4
2017-Sep-24 15:00N 41°21' E 002°10'0 0.2
2017-Sep-24 14:27N 41°22' E 002°10'0 0.0
2017-Sep-24 13:57N 41°22' E 002°10'0 0.0
2017-Sep-24 13:27N 41°22' E 002°10'0 0.0
2017-Sep-24 10:21N 41°22' E 002°10'0 0.0
2017-Sep-24 09:57N 41°22' E 002°10'0 0.0
2017-Sep-23 22:33N 41°22' E 002°10'0 0.0
2017-Sep-23 22:21N 41°22' E 002°10'0 0.0
2017-Sep-23 19:39N 41°22' E 002°10'  
2017-Sep-20 15:45N 41°18' E 002°11'  

Dump ship's entire track history